Kezdőlap
METAR-TAF:

METAR-TAF

Repülőterek :

Subang Jaya, Malajzia

földrajzi szélesség: 03-07N, földrajzi hosszúság: 101-32E, magasság: 27 m

Jelenlegi meteorológiai megfigyelések

A jelentés 34 perccel ezelõtt készült, 02:00 UTC
Szélcsend
Hőmérséklet 30°C
Páratartalom 79%
Légköri nyomás 1011 hPa
Látótávolság: 8000 m
Kevés felhő 1700 lábon, Cumulonimbus.

METAR: WMSA 140200Z 00000KT 8000 FEW017CB 30/26 Q1011

Idő: 10:34 (02:34 UTC)

Előrejelzés

A jelentés 3 órával és 34 perccel ezelõtt készült, 23:00 UTC
Az előrejelzés 14-én 00 óra UTC és 15-én 00 óra UTC között érvényes
Különbözõ irányokból fújó szél 2 kt
Látótávolság: 8000 m
Kevés felhő 1700 lábon, Cumulonimbus.
14-én 08 óra UTC és 14-én 12 óra UTC között ideiglenes
Látótávolság: 4000 m
Kevés felhő 1700 lábon, Cumulonimbus.
Szórványos felhőzet 2000 lábon
zivatar, esõ,

TAF: WMSA 132300Z 1400/1500 VRB02KT 8000 FEW017CB TEMPO 1408/1412 4000 TSRA FEW017CB SCT020

Meteorológiai megfigyelések és előrejelzések több, mint 4000 repülőtéren (METAR és TAF jelentéseket).

A térképen piros és sárga pontok jelzik az elérhető meteorológiai állomásokat.

Mozgassa az egeret a pont fölött, hogy megjelenjen az állomás neve.

Azután kattintson az időjárási megfigyelések és előrejelzések megtekintéséhez.

A térkép megváltoztatása: kattintson a fekete keresztel jelölt zöld gombra ráközelítéshez, a vonallal jelölt zöld gombra távolításhoz, vagy a zöld nyilakra a szomszédos térképek eléréséhez.


METAR-TAF: